Time;durP1;ratioP1;P1;durP2;ratioP2;P2;SDS_P1;SDS_P2;PMS_P1;PMS_P2;Temp;Humidity;BMP_temperature;BMP_pressure;BME280_temperature;BME280_humidity;BME280_pressure;Samples;Min_cycle;Max_cycle;Signal;HPM_P1;HPM_P2
2023/10/17 00:00:54;;;;;;;5.10;3.20;;;;;;;11.25;100.00;100302.88;31752552;27;20130;-89
2023/10/17 00:15:56;;;;;;;5.47;3.10;;;;;;;10.93;100.00;100300.72;31717426;27;20052;-85
2023/10/17 00:30:59;;;;;;;9.70;5.13;;;;;;;10.92;100.00;100303.84;31728577;28;20078;-86
2023/10/17 00:46:01;;;;;;;4.90;3.07;;;;;;;10.99;100.00;100322.75;31739210;28;20060;-85
2023/10/17 01:01:09;;;;;;;5.40;3.17;;;;;;;11.03;100.00;100345.19;31730983;27;20059;-84
2023/10/17 01:16:16;;;;;;;8.07;4.00;;;;;;;10.98;100.00;100359.25;31763205;28;20055;-90
2023/10/17 01:31:22;;;;;;;6.97;3.90;;;;;;;10.87;100.00;100364.09;31732689;27;20044;-86
2023/10/17 01:46:28;;;;;;;9.13;4.73;;;;;;;10.68;100.00;100381.06;31750159;28;20103;-85
2023/10/17 02:01:31;;;;;;;7.13;3.70;;;;;;;10.56;100.00;100399.50;31719606;28;20052;-89
2023/10/17 02:16:34;;;;;;;6.70;3.70;;;;;;;10.47;100.00;100401.94;31767607;28;20426;-89
2023/10/17 02:31:40;;;;;;;12.87;4.17;;;;;;;10.43;100.00;100416.72;31738257;28;20044;-91
2023/10/17 02:46:44;;;;;;;8.40;5.17;;;;;;;10.01;100.00;100420.75;31735211;28;20109;-85
2023/10/17 03:01:53;;;;;;;8.87;4.33;;;;;;;9.74;100.00;100429.59;31751555;28;20040;-84
2023/10/17 03:16:55;;;;;;;7.90;4.50;;;;;;;9.94;100.00;100418.88;31734324;27;20075;-90
2023/10/17 03:32:03;;;;;;;11.93;5.67;;;;;;;10.14;100.00;100435.31;31759079;27;20051;-88
2023/10/17 03:47:08;;;;;;;14.00;7.00;;;;;;;10.12;100.00;100452.00;31725682;28;20052;-85
2023/10/17 04:02:18;;;;;;;17.50;8.37;;;;;;;9.93;100.00;100482.44;31767919;27;20414;-91
2023/10/17 04:17:27;;;;;;;15.77;7.57;;;;;;;9.89;100.00;100496.06;31750367;27;20070;-85
2023/10/17 04:32:33;;;;;;;18.87;10.30;;;;;;;9.91;100.00;100518.13;31755891;27;20051;-90
2023/10/17 04:47:38;;;;;;;14.73;8.00;;;;;;;10.18;100.00;100534.47;31762969;28;20054;-91
2023/10/17 05:02:54;;;;;;;12.33;7.93;;;;;;;10.87;100.00;100575.94;31748633;28;20071;-86
2023/10/17 06:19:27;;;;;;;10.83;6.47;;;;;;;15.49;75.31;100707.75;31772971;28;20051;-86
2023/10/17 06:34:42;;;;;;;12.27;5.90;;;;;;;13.71;91.50;100706.94;31761886;27;20478;-86
2023/10/17 07:05:50;;;;;;;11.77;5.40;;;;;;;14.59;84.96;100734.09;31299508;28;20513;-86
2023/10/17 07:36:16;;;;;;;7.60;5.20;;;;;;;14.04;85.49;100758.84;31195414;28;20056;-86
2023/10/17 07:51:22;;;;;;;11.03;5.43;;;;;;;14.99;84.23;100766.59;31189991;28;20064;-89
2023/10/17 08:06:29;;;;;;;8.27;4.70;;;;;;;15.02;83.57;100779.41;31287366;28;20049;-85
2023/10/17 08:37:08;;;;;;;12.70;6.17;;;;;;;16.00;79.82;100802.38;31181695;28;20054;-81
2023/10/17 08:52:23;;;;;;;9.97;5.37;;;;;;;17.67;68.71;100791.22;31189383;28;20090;-80
2023/10/17 09:07:31;;;;;;;11.43;4.90;;;;;;;16.82;73.87;100788.00;31195021;28;20476;-76
2023/10/17 09:22:40;;;;;;;9.60;6.27;;;;;;;16.69;71.39;100786.09;31182636;28;20058;-80
2023/10/17 09:37:46;;;;;;;6.87;4.10;;;;;;;18.67;61.38;100784.47;31183473;28;20068;-79
2023/10/17 09:52:48;;;;;;;6.07;3.30;;;;;;;18.55;60.28;100774.38;31187280;28;20057;-81
2023/10/17 10:07:52;;;;;;;4.23;2.60;;;;;;;17.09;63.45;100801.94;31187002;28;20041;-77
2023/10/17 10:22:56;;;;;;;3.97;2.90;;;;;;;16.23;68.96;100795.81;31190544;28;20104;-77
2023/10/17 10:37:59;;;;;;;8.23;3.23;;;;;;;15.86;70.80;100786.38;31216486;28;20465;-79
2023/10/17 10:53:25;;;;;;;4.47;2.70;;;;;;;16.11;67.80;100779.38;31227259;28;20107;-78
2023/10/17 11:08:46;;;;;;;3.73;2.77;;;;;;;17.27;65.41;100774.63;31245863;28;20053;-78
2023/10/17 11:23:55;;;;;;;4.10;2.67;;;;;;;17.02;67.69;100763.78;31231890;28;20476;-79
2023/10/17 11:38:58;;;;;;;3.33;2.20;;;;;;;17.89;64.46;100773.91;31256810;28;20081;-78
2023/10/17 11:54:08;;;;;;;5.83;2.40;;;;;;;18.17;63.38;100777.50;31297303;28;20096;-78
2023/10/17 12:09:31;;;;;;;3.90;2.43;;;;;;;18.87;61.18;100764.78;31263452;28;20075;-77
2023/10/17 12:24:36;;;;;;;4.67;3.03;;;;;;;17.39;64.65;100765.56;31280662;28;20646;-77
2023/10/17 12:39:42;;;;;;;;;;;;;;;16.62;61.56;100769.84;31264166;28;20515;-79
2023/10/17 12:54:45;;;;;;;4.77;3.00;;;;;;;16.46;68.95;100767.25;31257454;28;19925;-79
2023/10/17 13:09:47;;;;;;;4.43;2.30;;;;;;;16.53;68.14;100772.50;31265709;28;20104;-79
2023/10/17 13:24:50;;;;;;;4.70;3.03;;;;;;;16.15;68.63;100775.31;31265124;28;20053;-78
2023/10/17 13:39:52;;;;;;;3.93;2.60;;;;;;;15.72;69.24;100786.06;31228178;28;20045;-84
2023/10/17 13:54:54;;;;;;;3.50;2.27;;;;;;;15.47;70.08;100781.28;31302240;28;20053;-85
2023/10/17 14:09:58;;;;;;;8.13;3.60;;;;;;;15.33;73.06;100785.22;31219256;28;20080;-88
2023/10/17 14:25:01;;;;;;;6.63;3.03;;;;;;;15.02;72.78;100773.94;31203513;28;20053;-88
2023/10/17 14:40:11;;;;;;;3.83;2.70;;;;;;;14.72;75.14;100763.44;31261293;28;20053;-89
2023/10/17 14:55:23;;;;;;;4.30;2.87;;;;;;;14.53;76.85;100776.00;31244667;28;20559;-87
2023/10/17 15:10:25;;;;;;;9.07;4.47;;;;;;;14.36;80.43;100788.13;31259086;28;20049;-88
2023/10/17 15:25:29;;;;;;;9.53;4.17;;;;;;;14.27;82.38;100792.22;31274607;28;20049;-86
2023/10/17 15:40:31;;;;;;;7.30;4.47;;;;;;;13.83;83.12;100807.25;31273322;28;20456;-89
2023/10/17 15:55:33;;;;;;;8.77;4.53;;;;;;;13.77;83.90;100808.94;31256584;28;20061;-88
2023/10/17 16:10:36;;;;;;;9.33;5.30;;;;;;;13.53;85.92;100811.00;31269024;28;20046;-85
2023/10/17 16:25:40;;;;;;;14.83;5.73;;;;;;;13.18;87.51;100812.50;31232600;28;20060;-84
2023/10/17 16:40:43;;;;;;;15.73;7.63;;;;;;;13.15;90.00;100816.06;31261942;28;20090;-85
2023/10/17 16:55:48;;;;;;;18.27;9.00;;;;;;;12.70;92.41;100809.44;31254040;28;20077;-90
2023/10/17 17:10:50;;;;;;;11.73;6.37;;;;;;;12.92;90.08;100826.97;31171155;28;20053;-83
2023/10/17 17:25:52;;;;;;;10.03;6.17;;;;;;;13.01;89.20;100832.63;31196974;28;20077;-91
2023/10/17 17:40:54;;;;;;;89.47;23.77;;;;;;;12.93;89.42;100850.31;31202396;23;20085;-88
2023/10/17 17:56:06;;;;;;;14.33;6.87;;;;;;;12.89;87.75;100855.81;31135385;28;20062;-94
2023/10/17 18:27:37;;;;;;;8.87;4.70;;;;;;;12.66;88.30;100885.78;31172236;28;20405;-87
2023/10/17 18:42:54;;;;;;;6.70;3.73;;;;;;;12.83;83.90;100894.84;31062916;28;20058;-89
2023/10/17 18:57:57;;;;;;;5.93;3.93;;;;;;;12.57;84.12;100899.91;31071884;28;20516;-87
2023/10/17 19:12:59;;;;;;;6.13;4.10;;;;;;;12.39;85.65;100915.75;31077452;23;20113;-89
2023/10/17 19:28:03;;;;;;;7.00;3.50;;;;;;;12.39;85.23;100913.03;31028930;28;20055;-88
2023/10/17 19:43:05;;;;;;;5.77;3.40;;;;;;;12.08;86.62;100912.28;31021103;28;20560;-88
2023/10/17 19:58:08;;;;;;;5.60;3.57;;;;;;;12.22;85.73;100919.50;31046021;28;20194;-89
2023/10/17 20:13:10;;;;;;;17.07;8.13;;;;;;;12.12;86.41;100923.13;31037360;28;20065;-88
2023/10/17 20:28:13;;;;;;;6.73;4.47;;;;;;;12.12;85.29;100923.88;31033898;28;20555;-88
2023/10/17 20:43:29;;;;;;;9.43;4.93;;;;;;;11.97;84.59;100922.53;31031242;28;20101;-89
2023/10/17 20:58:33;;;;;;;10.37;5.80;;;;;;;11.08;83.41;100912.56;31033820;28;20042;-88
2023/10/17 21:13:35;;;;;;;9.70;5.87;;;;;;;10.73;86.51;100912.84;31015722;28;20054;-85
2023/10/17 21:28:39;;;;;;;9.87;5.03;;;;;;;10.63;86.35;100908.28;30987154;28;20046;-78
2023/10/17 21:43:41;;;;;;;7.97;4.83;;;;;;;10.56;89.80;100896.28;30984010;28;20066;-77
2023/10/17 21:58:46;;;;;;;23.83;10.47;;;;;;;10.99;89.48;100897.91;30991986;28;20502;-79
2023/10/17 22:13:49;;;;;;;8.60;4.67;;;;;;;11.09;89.00;100892.38;30988500;28;20502;-79
2023/10/17 22:28:52;;;;;;;7.63;4.67;;;;;;;11.32;88.70;100894.47;30982880;28;20458;-79
2023/10/17 22:43:54;;;;;;;7.70;4.27;;;;;;;11.46;86.90;100907.91;30990616;28;20058;-78
2023/10/17 22:58:57;;;;;;;9.07;5.17;;;;;;;11.33;86.77;100908.84;30974903;28;20485;-78
2023/10/17 23:14:00;;;;;;;7.07;4.23;;;;;;;11.14;90.52;100899.28;30993309;28;20084;-78
2023/10/17 23:29:02;;;;;;;8.93;5.30;;;;;;;10.82;92.71;100902.31;30972844;28;20057;-80
2023/10/17 23:44:04;;;;;;;10.50;6.23;;;;;;;10.71;89.95;100893.47;30994311;28;20054;-78
2023/10/17 23:59:07;;;;;;;15.67;9.30;;;;;;;10.44;90.35;100888.59;31011156;28;20490;-78
